Time;durP1;ratioP1;P1;durP2;ratioP2;P2;SDS_P1;SDS_P2;PMS_P1;PMS_P2;Temp;Humidity;BMP_temperature;BMP_pressure;BME280_temperature;BME280_humidity;BME280_pressure;Samples;Min_cycle;Max_cycle;Signal;HPM_P1;HPM_P2
2024/01/07 00:02:15;;;;;;;13.27;4.30;;;;;;;-0.97;100.00;100691.84;10298577;28;20062;-72
2024/01/07 00:07:16;;;;;;;11.60;3.30;;;;;;;-1.46;100.00;100654.63;10298004;28;20053;-73
2024/01/07 00:12:17;;;;;;;6.35;2.92;;;;;;;-1.25;100.00;100679.50;10297765;28;20534;-73
2024/01/07 00:17:17;;;;;;;7.05;3.40;;;;;;;-1.29;100.00;100675.34;10297532;28;20491;-72
2024/01/07 00:22:18;;;;;;;11.65;3.58;;;;;;;-1.27;100.00;100693.53;10297873;28;20380;-73
2024/01/07 00:27:19;;;;;;;7.97;3.50;;;;;;;-1.27;100.00;100677.91;10297180;28;20034;-72
2024/01/07 00:32:20;;;;;;;6.35;2.97;;;;;;;-1.28;100.00;100661.41;10298145;28;20049;-72
2024/01/07 00:37:21;;;;;;;5.47;3.42;;;;;;;-1.43;100.00;100644.84;10296889;28;20122;-73
2024/01/07 00:42:21;;;;;;;9.63;3.47;;;;;;;-1.99;100.00;100577.59;10296222;28;20069;-73
2024/01/07 00:47:22;;;;;;;7.13;3.45;;;;;;;-1.56;100.00;100622.16;10295838;28;20518;-72
2024/01/07 00:52:23;;;;;;;5.90;3.42;;;;;;;-1.45;100.00;100597.19;10296819;28;20049;-73
2024/01/07 00:57:24;;;;;;;7.72;3.60;;;;;;;-1.49;100.00;100582.66;10295453;28;20070;-73
2024/01/07 01:02:24;;;;;;;5.90;3.63;;;;;;;-1.46;100.00;100582.50;10295859;28;20043;-73
2024/01/07 01:07:25;;;;;;;6.00;3.20;;;;;;;-1.28;100.00;100603.25;10296182;28;20074;-73
2024/01/07 01:12:26;;;;;;;7.97;3.90;;;;;;;-1.38;100.00;100597.69;10295239;28;20039;-73
2024/01/07 01:17:27;;;;;;;7.75;3.42;;;;;;;-1.71;100.00;100540.47;10295144;28;20081;-73
2024/01/07 01:22:27;;;;;;;8.80;3.70;;;;;;;-1.41;100.00;100590.91;10294385;28;20075;-73
2024/01/07 01:27:28;;;;;;;7.40;3.35;;;;;;;-1.59;100.00;100586.69;10294349;28;20043;-73
2024/01/07 01:32:29;;;;;;;12.05;4.22;;;;;;;-1.91;100.00;100521.59;10294339;28;20049;-73
2024/01/07 01:37:32;;;;;;;7.32;3.78;;;;;;;-1.60;100.00;100587.63;10293392;28;20046;-73
2024/01/07 01:42:33;;;;;;;6.50;3.33;;;;;;;-1.48;100.00;100562.66;10293780;28;20396;-73
2024/01/07 01:47:34;;;;;;;6.65;3.58;;;;;;;-1.74;100.00;100509.41;10294067;28;20050;-73
2024/01/07 01:52:35;;;;;;;7.22;3.42;;;;;;;-1.50;100.00;100541.88;10293787;28;20254;-73
2024/01/07 01:57:39;;;;;;;5.80;3.25;;;;;;;-1.23;100.00;100570.75;10294229;28;20046;-73
2024/01/07 02:02:40;;;;;;;6.18;3.67;;;;;;;-1.21;100.00;100568.91;10292838;28;20046;-73
2024/01/07 02:07:41;;;;;;;5.78;3.47;;;;;;;-1.32;100.00;100560.00;10292751;28;20039;-73
2024/01/07 02:12:42;;;;;;;6.68;3.60;;;;;;;-1.43;100.00;100511.13;10292220;28;20038;-72
2024/01/07 02:17:42;;;;;;;8.27;4.18;;;;;;;-1.67;100.00;100505.53;10293520;28;20073;-73
2024/01/07 02:22:43;;;;;;;7.60;4.38;;;;;;;-1.22;100.00;100584.66;10292863;28;20042;-73
2024/01/07 02:27:44;;;;;;;13.88;4.32;;;;;;;-1.21;100.00;100583.72;10292033;28;20050;-73
2024/01/07 02:32:45;;;;;;;8.57;4.40;;;;;;;-1.28;100.00;100570.19;10292625;28;20074;-73
2024/01/07 02:37:47;;;;;;;9.05;4.60;;;;;;;-1.27;100.00;100568.41;10292913;28;20049;-73
2024/01/07 02:42:47;;;;;;;7.65;4.32;;;;;;;-1.27;100.00;100569.25;10291870;28;20051;-73
2024/01/07 02:47:48;;;;;;;8.15;4.50;;;;;;;-1.41;100.00;100515.34;10290531;28;20454;-73
2024/01/07 02:52:49;;;;;;;8.75;4.15;;;;;;;-1.58;100.00;100486.78;10291544;28;20093;-73
2024/01/07 02:57:50;;;;;;;7.18;4.78;;;;;;;-1.08;100.00;100563.81;10291331;28;20062;-74
2024/01/07 03:02:50;;;;;;;11.50;4.38;;;;;;;-1.03;100.00;100551.38;10292287;28;20042;-73
2024/01/07 03:07:51;;;;;;;7.68;4.13;;;;;;;-1.07;100.00;100536.84;10291983;28;20058;-73
2024/01/07 03:12:52;;;;;;;6.90;4.13;;;;;;;-1.09;100.00;100535.25;10291660;28;20066;-73
2024/01/07 03:17:53;;;;;;;6.38;3.80;;;;;;;-1.31;100.00;100500.00;10292020;28;20062;-73
2024/01/07 03:22:55;;;;;;;10.43;4.28;;;;;;;-1.41;100.00;100491.00;10289751;28;20046;-73
2024/01/07 03:27:55;;;;;;;6.18;4.07;;;;;;;-1.26;100.00;100515.34;10291278;28;20053;-73
2024/01/07 03:32:56;;;;;;;9.13;4.25;;;;;;;-1.23;100.00;100505.59;10291106;28;20041;-73
2024/01/07 03:37:57;;;;;;;10.80;4.30;;;;;;;-1.18;100.00;100495.75;10291138;28;20181;-73
2024/01/07 03:42:58;;;;;;;11.85;4.45;;;;;;;-0.91;100.00;100515.91;10290459;28;20538;-73
2024/01/07 03:47:58;;;;;;;15.98;4.28;;;;;;;-1.05;100.00;100488.03;10290361;28;20051;-73
2024/01/07 03:52:59;;;;;;;18.02;4.60;;;;;;;-0.95;100.00;100506.63;10290750;28;20038;-73
2024/01/07 03:58:00;;;;;;;10.77;4.32;;;;;;;-1.29;100.00;100450.38;10290926;28;20089;-73
2024/01/07 04:03:02;;;;;;;7.72;3.97;;;;;;;-1.32;100.00;100468.81;10296882;28;20418;-73
2024/01/07 04:08:03;;;;;;;11.23;4.47;;;;;;;-1.10;100.00;100502.28;10298544;28;20101;-71
2024/01/07 04:13:04;;;;;;;10.27;5.05;;;;;;;-1.31;100.00;100480.94;10297852;28;20047;-73
2024/01/07 04:18:05;;;;;;;32.90;13.82;;;;;;;-1.00;100.00;100525.13;10297159;28;20054;-73
2024/01/07 04:23:06;;;;;;;18.63;7.78;;;;;;;-0.96;100.00;100528.38;10297301;28;20047;-73
2024/01/07 04:28:07;;;;;;;20.48;9.15;;;;;;;-1.10;100.00;100513.56;10297835;28;20538;-74
2024/01/07 04:33:08;;;;;;;21.08;7.07;;;;;;;-0.99;100.00;100511.19;10292793;28;20038;-72
2024/01/07 04:38:09;;;;;;;11.98;4.88;;;;;;;-0.89;100.00;100513.25;10293598;28;20140;-73
2024/01/07 04:43:10;;;;;;;7.85;4.38;;;;;;;-0.79;100.00;100520.41;10297266;28;20496;-73
2024/01/07 04:48:11;;;;;;;8.25;4.32;;;;;;;-0.83;100.00;100499.84;10296306;28;20507;-72
2024/01/07 04:53:12;;;;;;;13.07;6.97;;;;;;;-0.78;100.00;100482.13;10296338;28;20047;-73
2024/01/07 04:58:13;;;;;;;12.75;7.07;;;;;;;-0.54;100.00;100495.44;10295447;28;20065;-72
2024/01/07 05:03:14;;;;;;;12.70;6.13;;;;;;;-0.78;100.00;100445.59;10295501;28;20043;-73
2024/01/07 05:08:15;;;;;;;20.98;7.55;;;;;;;-0.68;100.00;100445.91;10296490;28;20498;-72
2024/01/07 05:13:15;;;;;;;11.52;6.40;;;;;;;-0.31;100.00;100512.31;10293929;28;20050;-72
2024/01/07 05:18:16;;;;;;;15.90;6.63;;;;;;;-0.60;100.00;100456.69;10295286;28;20046;-72
2024/01/07 05:23:17;;;;;;;25.42;10.63;;;;;;;-0.62;100.00;100441.13;10295011;28;20039;-73
2024/01/07 05:28:19;;;;;;;33.97;10.75;;;;;;;-0.22;100.00;100487.44;10294722;28;20114;-73
2024/01/07 05:33:20;;;;;;;30.27;10.23;;;;;;;-0.19;100.00;100488.06;10293488;28;20062;-74
2024/01/07 05:38:21;;;;;;;24.58;10.27;;;;;;;-0.21;100.00;100471.66;10289286;28;20122;-80
2024/01/07 05:43:22;;;;;;;13.77;6.85;;;;;;;-0.06;100.00;100455.03;10289656;28;20094;-73
2024/01/07 05:48:23;;;;;;;16.65;6.03;;;;;;;0.15;100.00;100399.72;10293235;28;20108;-73
2024/01/07 05:53:23;;;;;;;14.38;6.18;;;;;;;0.86;100.00;100453.41;10294228;28;20054;-72
2024/01/07 05:58:24;;;;;;;16.48;8.55;;;;;;;1.51;100.00;100447.22;10293039;28;20141;-74
2024/01/07 06:03:25;;;;;;;14.10;6.63;;;;;;;1.94;100.00;100431.06;10291326;28;20133;-73
2024/01/07 06:08:29;;;;;;;15.07;5.85;;;;;;;1.79;100.00;100352.66;10291821;28;20047;-73
2024/01/07 06:13:29;;;;;;;9.65;5.10;;;;;;;2.55;100.00;100392.50;10290990;28;20047;-73
2024/01/07 06:18:30;;;;;;;10.20;5.65;;;;;;;2.61;100.00;100399.91;10290209;28;20046;-74
2024/01/07 06:23:34;;;;;;;9.25;5.10;;;;;;;2.67;100.00;100382.88;10291353;28;20043;-74
2024/01/07 06:28:35;;;;;;;9.07;5.90;;;;;;;2.97;100.00;100371.81;10292719;28;20718;-70
2024/01/07 06:33:36;;;;;;;12.63;5.22;;;;;;;3.12;100.00;100352.25;10291384;28;20089;-71
2024/01/07 06:38:36;;;;;;;13.15;4.90;;;;;;;3.44;100.00;100367.28;10291903;28;20487;-71
2024/01/07 06:43:37;;;;;;;6.68;4.50;;;;;;;3.28;100.00;100311.66;10292511;28;20138;-70
2024/01/07 06:48:38;;;;;;;12.55;4.45;;;;;;;3.80;100.00;100355.63;10292176;28;20043;-69
2024/01/07 06:53:40;;;;;;;6.53;4.25;;;;;;;3.74;100.00;100310.59;10291366;28;20125;-68
2024/01/07 06:58:41;;;;;;;10.55;4.55;;;;;;;4.34;100.00;100346.78;10292234;28;20038;-75
2024/01/07 07:03:41;;;;;;;8.15;4.10;;;;;;;4.63;99.72;100345.28;10291667;28;20050;-69
2024/01/07 07:08:42;;;;;;;14.18;4.25;;;;;;;4.45;98.93;100258.25;10291013;28;20085;-69
2024/01/07 07:13:43;;;;;;;7.82;4.00;;;;;;;5.39;97.66;100343.97;10290608;28;20043;-67
2024/01/07 07:18:44;;;;;;;9.80;3.80;;;;;;;5.71;96.88;100345.53;10290968;28;20101;-70
2024/01/07 07:23:44;;;;;;;6.25;3.88;;;;;;;5.68;96.23;100290.47;10289829;28;20042;-75
2024/01/07 07:28:46;;;;;;;8.55;3.70;;;;;;;6.24;95.47;100358.38;10291132;28;20051;-74
2024/01/07 07:33:47;;;;;;;12.20;3.35;;;;;;;6.37;94.88;100347.53;10291053;28;20073;-72
2024/01/07 07:38:48;;;;;;;5.20;3.15;;;;;;;6.65;93.42;100335.28;10299518;28;20039;-72
2024/01/07 07:43:49;;;;;;;5.03;3.08;;;;;;;6.80;91.87;100328.56;10297653;28;20066;-73
2024/01/07 07:48:49;;;;;;;5.13;2.65;;;;;;;7.15;90.65;100332.31;10298281;28;20567;-73
2024/01/07 07:53:50;;;;;;;7.63;3.10;;;;;;;7.31;89.35;100271.72;10296668;28;20134;-73
2024/01/07 07:58:51;;;;;;;5.40;3.05;;;;;;;7.64;88.32;100324.13;10285258;28;20110;-73
2024/01/07 08:03:52;;;;;;;7.25;3.15;;;;;;;7.73;88.41;100302.06;10296210;28;20125;-75
2024/01/07 08:08:52;;;;;;;4.75;2.58;;;;;;;7.80;87.60;100302.28;10297809;28;20549;-73
2024/01/07 08:13:53;;;;;;;5.72;2.88;;;;;;;7.85;87.45;100284.16;10297706;28;20097;-70
2024/01/07 08:18:57;;;;;;;5.43;2.75;;;;;;;7.56;87.02;100224.38;10295917;28;20038;-70
2024/01/07 08:23:58;;;;;;;5.15;2.80;;;;;;;7.88;86.21;100278.56;10296132;28;20137;-69
2024/01/07 08:28:59;;;;;;;10.48;2.97;;;;;;;7.95;85.90;100291.00;10276991;28;20050;-73
2024/01/07 08:34:00;;;;;;;7.55;4.03;;;;;;;7.74;85.45;100240.25;10278672;28;20054;-73
2024/01/07 08:39:01;;;;;;;7.85;3.30;;;;;;;7.74;84.67;100219.91;10277092;28;20045;-73
2024/01/07 08:44:02;;;;;;;5.72;2.80;;;;;;;8.51;83.21;100232.56;10279484;28;20065;-71
2024/01/07 08:49:03;;;;;;;17.95;3.45;;;;;;;9.21;81.36;100264.13;10265685;28;20138;-75
2024/01/07 08:54:04;;;;;;;7.07;3.40;;;;;;;9.48;79.77;100257.75;10271363;28;20039;-75
2024/01/07 08:59:05;;;;;;;7.22;4.07;;;;;;;9.52;78.71;100251.97;10278596;28;20047;-74
2024/01/07 09:04:05;;;;;;;7.25;3.47;;;;;;;9.50;78.63;100239.84;10272372;28;20051;-75
2024/01/07 09:09:06;;;;;;;9.27;3.30;;;;;;;9.58;77.48;100232.75;10282502;28;20072;-73
2024/01/07 09:14:08;;;;;;;7.93;5.18;;;;;;;9.51;77.98;100214.97;10286755;28;20046;-71
2024/01/07 09:19:08;;;;;;;77.18;38.88;;;;;;;9.47;78.57;100200.41;10294983;28;20034;-76
2024/01/07 09:24:09;;;;;;;20.45;12.07;;;;;;;9.56;78.30;100189.63;10294246;28;20042;-74
2024/01/07 09:29:10;;;;;;;13.27;5.07;;;;;;;9.77;77.34;100172.41;10295417;28;20499;-75
2024/01/07 09:34:11;;;;;;;10.52;3.13;;;;;;;9.98;76.48;100175.34;10294693;28;20049;-74
2024/01/07 09:39:12;;;;;;;8.77;2.58;;;;;;;10.08;75.52;100164.59;10294687;28;20039;-74
2024/01/07 09:44:13;;;;;;;6.07;2.92;;;;;;;10.15;75.04;100160.25;10293627;28;20149;-74
2024/01/07 09:49:14;;;;;;;5.15;2.72;;;;;;;10.36;74.54;100159.72;10294209;28;20047;-75
2024/01/07 09:54:19;;;;;;;4.03;2.67;;;;;;;10.03;73.72;100098.72;10293323;28;20101;-75
2024/01/07 09:59:20;;;;;;;6.28;2.47;;;;;;;10.30;74.10;100148.97;10292958;28;20117;-75
2024/01/07 10:04:21;;;;;;;6.07;3.28;;;;;;;10.36;73.24;100119.88;10291787;28;20477;-75
2024/01/07 10:09:23;;;;;;;6.50;2.45;;;;;;;10.54;73.19;100127.63;10292790;28;20077;-75
2024/01/07 10:14:27;;;;;;;6.28;2.47;;;;;;;10.57;72.33;100131.75;10293730;28;20050;-74
2024/01/07 10:19:28;;;;;;;8.43;5.82;;;;;;;10.54;72.03;100124.13;10293682;28;20070;-73
2024/01/07 10:24:43;;;;;;;7.38;2.67;;;;;;;10.66;71.09;100122.75;10293127;28;20082;-73
2024/01/07 10:29:50;;;;;;;3.03;2.15;;;;;;;10.55;70.77;100101.88;10292642;28;20524;-73
2024/01/07 10:35:01;;;;;;;3.78;2.42;;;;;;;10.79;71.02;100104.38;10291815;28;20057;-73
2024/01/07 10:40:03;;;;;;;3.42;1.90;;;;;;;10.86;71.19;100084.09;10292203;28;20047;-73
2024/01/07 10:45:04;;;;;;;5.32;2.28;;;;;;;10.73;70.61;100067.91;10291777;28;20090;-76
2024/01/07 10:50:08;;;;;;;7.97;2.60;;;;;;;10.74;70.23;100069.56;10291518;28;20138;-74
2024/01/07 10:55:14;;;;;;;4.70;2.70;;;;;;;10.76;70.87;100082.66;10291302;28;20102;-74
2024/01/07 11:00:20;;;;;;;8.40;4.85;;;;;;;10.48;69.89;100025.56;10291905;28;20038;-73
2024/01/07 11:05:37;;;;;;;5.45;3.50;;;;;;;10.78;68.71;100049.59;10291099;28;20050;-73
2024/01/07 11:10:49;;;;;;;6.63;2.90;;;;;;;10.87;68.99;100037.91;10290191;28;20491;-73
2024/01/07 11:15:49;;;;;;;4.07;2.47;;;;;;;10.97;69.59;100042.97;10291606;28;20034;-73
2024/01/07 11:20:50;;;;;;;4.20;1.50;;;;;;;11.03;68.77;100046.75;10291924;28;20121;-75
2024/01/07 11:25:51;;;;;;;4.40;1.45;;;;;;;10.91;68.87;100052.50;10290566;28;20046;-75
2024/01/07 11:30:54;;;;;;;3.75;1.50;;;;;;;10.68;68.54;100007.34;10290078;28;20499;-72
2024/01/07 11:36:01;;;;;;;5.82;1.67;;;;;;;11.02;67.67;100037.97;10291194;28;20046;-72
2024/01/07 11:41:05;;;;;;;6.03;2.40;;;;;;;10.95;68.25;100039.69;10291201;28;20066;-72
2024/01/07 11:46:06;;;;;;;5.35;1.70;;;;;;;10.72;68.55;100018.44;10288914;28;20473;-72
2024/01/07 11:51:07;;;;;;;14.13;1.35;;;;;;;10.79;67.88;100032.66;10282091;28;20133;-73
2024/01/07 11:56:09;;;;;;;6.32;1.40;;;;;;;10.40;67.86;99980.44;10264348;28;20045;-72
2024/01/07 12:01:09;;;;;;;9.95;1.50;;;;;;;10.74;68.10;100056.28;10266563;28;20043;-73
2024/01/07 12:06:13;;;;;;;3.20;1.20;;;;;;;10.64;68.36;100045.03;10275923;28;20507;-72
2024/01/07 12:11:16;;;;;;;8.10;1.70;;;;;;;10.54;67.98;100042.63;10268884;28;20082;-74
2024/01/07 12:16:17;;;;;;;338.80;232.35;;;;;;;10.13;68.54;99991.53;10272108;28;20133;-73
2024/01/07 12:21:22;;;;;;;69.05;33.28;;;;;;;10.20;67.62;100027.00;10275315;28;21348;-73
2024/01/07 12:26:27;;;;;;;21.90;10.18;;;;;;;10.17;67.73;100038.81;10271333;28;20049;-73
2024/01/07 12:31:27;;;;;;;37.88;6.63;;;;;;;9.50;68.75;99941.06;10272822;28;20055;-73
2024/01/07 12:36:31;;;;;;;19.17;4.57;;;;;;;9.58;68.58;99978.16;10272275;28;20047;-70
2024/01/07 12:41:32;;;;;;;7.73;2.77;;;;;;;9.51;69.32;100006.34;10267436;28;20499;-70
2024/01/07 12:46:33;;;;;;;21.85;3.63;;;;;;;9.66;69.93;100043.59;10271585;28;20042;-71
2024/01/07 12:51:33;;;;;;;32.65;3.45;;;;;;;9.38;70.50;100036.03;10276860;28;20507;-72
2024/01/07 12:56:34;;;;;;;35.35;3.88;;;;;;;9.19;71.12;100030.25;10270845;28;20554;-71
2024/01/07 13:01:36;;;;;;;48.25;4.43;;;;;;;9.13;71.45;100058.25;10270655;28;20063;-74
2024/01/07 13:06:37;;;;;;;60.50;5.03;;;;;;;8.74;72.27;100040.34;10271229;28;20495;-74
2024/01/07 13:11:38;;;;;;;47.40;5.07;;;;;;;8.66;72.91;100040.31;10268881;28;20034;-69
2024/01/07 13:16:39;;;;;;;22.25;4.60;;;;;;;7.91;73.08;99950.28;10267022;28;20039;-71
2024/01/07 13:21:40;;;;;;;26.70;5.43;;;;;;;8.18;73.75;100036.53;10274250;28;20557;-69
2024/01/07 13:26:41;;;;;;;45.90;6.65;;;;;;;8.07;74.67;100042.91;10271802;28;20078;-72
2024/01/07 13:31:42;;;;;;;30.02;6.85;;;;;;;7.77;75.54;100029.22;10269463;28;20560;-72
2024/01/07 13:36:44;;;;;;;48.65;7.65;;;;;;;7.70;76.39;100052.00;10270304;28;20035;-70
2024/01/07 13:41:45;;;;;;;33.08;6.75;;;;;;;7.46;76.83;100043.94;10275657;28;20422;-70
2024/01/07 13:46:47;;;;;;;72.60;9.85;;;;;;;7.05;78.31;100011.91;10279666;28;20054;-73
2024/01/07 13:51:47;;;;;;;37.95;7.38;;;;;;;7.01;78.69;100034.34;10269177;28;20050;-72
2024/01/07 13:56:48;;;;;;;33.42;8.32;;;;;;;6.59;79.43;100005.94;10273756;28;20499;-71
2024/01/07 14:01:49;;;;;;;18.73;6.50;;;;;;;6.31;79.80;100027.09;10266295;28;20057;-70
2024/01/07 14:06:59;;;;;;;22.42;7.15;;;;;;;6.27;81.74;100041.53;10275049;28;20410;-72
2024/01/07 14:12:00;;;;;;;42.63;8.23;;;;;;;5.89;80.91;99998.56;10267917;28;20039;-72
2024/01/07 14:17:01;;;;;;;30.85;7.43;;;;;;;5.96;81.35;100019.91;10269280;28;20042;-72
2024/01/07 14:22:01;;;;;;;23.98;7.60;;;;;;;5.56;81.79;99991.19;10273941;28;20042;-71
2024/01/07 14:27:02;;;;;;;25.65;7.47;;;;;;;5.41;82.49;99981.09;10269537;28;20044;-71
2024/01/07 14:32:05;;;;;;;29.42;7.00;;;;;;;5.46;83.32;100042.09;10290649;28;20566;-73
2024/01/07 14:37:09;;;;;;;180.77;17.17;;;;;;;5.15;83.73;100009.88;10291429;28;20035;-76
2024/01/07 14:42:10;;;;;;;91.85;14.57;;;;;;;5.34;83.95;100026.63;10289359;28;20142;-80
2024/01/07 14:47:11;;;;;;;60.28;11.02;;;;;;;5.13;84.10;100039.97;10290901;28;20042;-72
2024/01/07 14:52:12;;;;;;;38.42;9.80;;;;;;;5.04;84.88;100033.72;10289451;28;20057;-72
2024/01/07 14:57:13;;;;;;;42.35;13.07;;;;;;;4.87;85.38;100031.78;10286872;28;20507;-70
2024/01/07 15:02:14;;;;;;;49.45;16.65;;;;;;;4.79;86.02;100041.22;10283677;28;20499;-72
2024/01/07 15:07:14;;;;;;;61.58;16.38;;;;;;;4.64;86.46;100052.28;10280276;28;20053;-72
2024/01/07 15:12:15;;;;;;;43.88;16.55;;;;;;;4.43;86.88;100055.84;10281382;28;20074;-68
2024/01/07 15:17:18;;;;;;;54.42;16.50;;;;;;;4.35;87.10;100056.53;10251148;28;20036;-72
2024/01/07 15:22:19;;;;;;;45.67;13.90;;;;;;;3.79;87.36;99993.97;10252021;28;20043;-73
2024/01/07 15:27:19;;;;;;;41.15;15.00;;;;;;;3.64;87.64;99974.28;10282160;28;20050;-73
2024/01/07 15:32:20;;;;;;;35.38;13.13;;;;;;;3.98;88.25;100058.91;10290151;28;20044;-73
2024/01/07 15:37:21;;;;;;;24.55;9.82;;;;;;;3.62;88.11;100036.59;10291112;28;20041;-72
2024/01/07 15:42:22;;;;;;;18.42;6.53;;;;;;;3.66;88.03;100067.75;10289349;28;20587;-73
2024/01/07 15:47:23;;;;;;;21.13;4.05;;;;;;;3.46;88.56;100065.97;10273476;28;20535;-70
2024/01/07 15:52:24;;;;;;;11.05;3.78;;;;;;;3.18;89.22;100047.28;10274286;28;20049;-72
2024/01/07 15:57:25;;;;;;;15.32;3.40;;;;;;;3.28;88.88;100068.34;10295003;28;20202;-72
2024/01/07 16:02:27;;;;;;;11.18;3.50;;;;;;;2.54;89.24;99947.66;10298161;28;20039;-71
2024/01/07 16:07:28;;;;;;;35.03;10.80;;;;;;;3.16;89.73;100083.31;10266445;28;20051;-76
2024/01/07 16:12:30;;;;;;;33.40;12.88;;;;;;;3.09;89.82;100084.78;10255935;28;20043;-72
2024/01/07 16:17:31;;;;;;;42.55;14.00;;;;;;;3.08;89.63;100072.63;10255346;28;20081;-73
2024/01/07 16:22:32;;;;;;;17.70;8.15;;;;;;;2.83;89.97;100018.72;10257131;28;20066;-74
2024/01/07 16:27:33;;;;;;;31.67;11.23;;;;;;;3.12;90.44;100058.28;10257494;29;20047;-72
2024/01/07 16:32:33;;;;;;;35.80;11.48;;;;;;;2.87;90.86;100033.25;10256855;28;20043;-73
2024/01/07 16:37:34;;;;;;;26.23;10.65;;;;;;;2.99;90.95;100057.63;10256672;28;20126;-73
2024/01/07 16:42:35;;;;;;;37.75;11.57;;;;;;;2.89;91.35;100072.47;10256128;28;20697;-73
2024/01/07 16:47:36;;;;;;;28.63;8.82;;;;;;;2.70;92.39;100097.56;10267703;28;20074;-77
2024/01/07 16:52:37;;;;;;;20.67;7.85;;;;;;;2.33;92.25;100035.91;10279360;28;20038;-70
2024/01/07 16:57:37;;;;;;;20.65;8.35;;;;;;;2.46;92.34;100070.69;10278167;28;20035;-71
2024/01/07 17:02:38;;;;;;;21.13;7.13;;;;;;;2.23;92.15;100070.72;10256709;28;20483;-74
2024/01/07 17:07:39;;;;;;;23.90;7.15;;;;;;;2.01;92.88;100070.75;10255845;28;20043;-72
2024/01/07 17:12:40;;;;;;;30.00;9.48;;;;;;;1.80;93.01;100015.63;10295519;28;20042;-71
2024/01/07 17:17:41;;;;;;;25.25;11.40;;;;;;;2.01;92.94;100052.41;10295445;28;20049;-73
2024/01/07 17:22:42;;;;;;;59.17;24.52;;;;;;;1.72;93.16;100000.50;10295193;28;20098;-72
2024/01/07 17:27:43;;;;;;;67.00;23.70;;;;;;;2.02;94.43;100083.72;10295201;28;20174;-72
2024/01/07 17:32:44;;;;;;;44.33;19.92;;;;;;;1.51;94.14;100031.81;10292979;28;20278;-72
2024/01/07 17:37:45;;;;;;;26.95;10.73;;;;;;;1.70;94.67;100119.41;10279837;28;20075;-73
2024/01/07 17:42:45;;;;;;;20.88;10.45;;;;;;;1.46;94.95;100086.28;10279830;28;20058;-73
2024/01/07 17:47:47;;;;;;;16.90;8.88;;;;;;;1.50;95.01;100092.97;10293856;28;20053;-73
2024/01/07 17:52:47;;;;;;;19.38;7.45;;;;;;;1.52;95.17;100082.38;10292926;28;20039;-74
2024/01/07 17:57:48;;;;;;;38.85;11.65;;;;;;;1.36;95.33;100074.84;10294118;28;20506;-74
2024/01/07 18:02:49;;;;;;;34.42;12.55;;;;;;;0.93;94.63;100019.66;10292798;28;20133;-73
2024/01/07 18:07:50;;;;;;;80.97;38.80;;;;;;;1.28;95.47;100083.28;10293560;28;20106;-74
2024/01/07 18:12:51;;;;;;;62.85;31.15;;;;;;;1.22;95.24;100082.91;10292002;28;20038;-73
2024/01/07 18:17:52;;;;;;;74.72;31.48;;;;;;;0.95;95.93;100017.78;10293397;28;20051;-73
2024/01/07 18:22:52;;;;;;;85.60;32.05;;;;;;;1.21;95.84;100058.53;10292622;28;20057;-73
2024/01/07 18:27:53;;;;;;;100.97;36.05;;;;;;;1.14;95.80;100052.91;10281585;28;20034;-73
2024/01/07 18:32:54;;;;;;;109.60;34.45;;;;;;;1.06;95.47;100051.81;10292388;28;20053;-75
2024/01/07 18:37:55;;;;;;;100.10;34.03;;;;;;;0.96;96.65;100056.06;10292066;28;20050;-74
2024/01/07 18:42:58;;;;;;;89.03;33.20;;;;;;;0.83;96.75;100056.97;10292066;28;20100;-74
2024/01/07 18:47:59;;;;;;;78.90;28.33;;;;;;;0.73;96.12;100063.00;10291939;28;20130;-74
2024/01/07 18:53:00;;;;;;;79.25;28.75;;;;;;;0.71;96.59;100052.63;10291563;28;20427;-74
2024/01/07 18:58:01;;;;;;;70.45;26.33;;;;;;;0.34;96.33;100023.13;10291085;28;20054;-74
2024/01/07 19:03:03;;;;;;;82.35;20.35;;;;;;;0.51;97.02;100056.72;10291712;28;20057;-74
2024/01/07 19:08:04;;;;;;;62.38;21.67;;;;;;;0.48;96.97;100066.53;10290735;28;20038;-74
2024/01/07 19:13:05;;;;;;;58.72;16.58;;;;;;;-0.21;97.17;99977.41;10289707;28;20530;-74
2024/01/07 19:18:06;;;;;;;28.63;12.43;;;;;;;-0.07;96.94;100040.75;10290480;28;20062;-74
2024/01/07 19:23:07;;;;;;;22.80;11.10;;;;;;;-0.13;97.24;100061.25;10288648;28;20049;-74
2024/01/07 19:28:08;;;;;;;51.10;15.57;;;;;;;0.22;97.22;100134.53;10290387;28;20410;-74
2024/01/07 19:33:09;;;;;;;56.47;18.65;;;;;;;0.19;97.94;100138.19;10297900;28;20058;-74
2024/01/07 19:38:09;;;;;;;38.85;18.77;;;;;;;0.23;98.13;100126.59;10297266;28;20532;-74
2024/01/07 19:43:10;;;;;;;40.45;16.38;;;;;;;-0.09;97.98;100101.88;10299781;28;20054;-73
2024/01/07 19:48:11;;;;;;;39.60;19.35;;;;;;;-0.08;97.26;100080.88;10299287;28;20564;-74
2024/01/07 19:53:13;;;;;;;49.53;20.20;;;;;;;-0.01;97.58;100082.13;10298238;28;20173;-71
2024/01/07 19:58:17;;;;;;;73.22;25.70;;;;;;;-0.32;97.29;100007.72;10299783;28;20137;-71
2024/01/07 20:03:18;;;;;;;60.15;23.63;;;;;;;-0.02;98.03;100082.25;10297795;28;20050;-71
2024/01/07 20:08:21;;;;;;;69.47;28.85;;;;;;;-0.33;97.26;100018.25;10298475;28;20446;-71
2024/01/07 20:13:22;;;;;;;75.50;28.70;;;;;;;-0.43;97.86;100027.66;10298208;28;20078;-71
2024/01/07 20:18:24;;;;;;;65.80;25.30;;;;;;;-0.22;98.51;100081.00;10297827;28;20039;-71
2024/01/07 20:23:25;;;;;;;58.20;24.67;;;;;;;-0.35;98.77;100083.63;10288148;28;20051;-71
2024/01/07 20:28:25;;;;;;;52.85;21.60;;;;;;;-0.55;98.69;100087.56;10296701;28;20046;-71
2024/01/07 20:33:26;;;;;;;40.80;18.88;;;;;;;-0.52;98.80;100105.63;10296261;28;20035;-72
2024/01/07 20:38:27;;;;;;;34.92;15.20;;;;;;;-0.51;99.67;100117.75;10297190;28;20066;-71
2024/01/07 20:43:28;;;;;;;24.83;11.73;;;;;;;-0.46;99.61;100120.88;10297039;28;20086;-71
2024/01/07 20:48:29;;;;;;;24.80;11.38;;;;;;;-0.53;100.00;100119.63;10296878;28;20047;-71
2024/01/07 20:53:31;;;;;;;20.77;10.88;;;;;;;-0.51;100.00;100125.59;10297249;28;20081;-72
2024/01/07 20:58:32;;;;;;;22.85;12.75;;;;;;;-0.41;100.00;100154.50;10296845;28;20125;-71
2024/01/07 21:03:33;;;;;;;18.50;10.23;;;;;;;-0.51;100.00;100127.34;10295500;28;20042;-70
2024/01/07 21:08:35;;;;;;;18.40;10.00;;;;;;;-0.78;100.00;100096.94;10296243;28;20474;-71
2024/01/07 21:13:36;;;;;;;26.02;9.90;;;;;;;-0.46;100.00;100126.09;10295436;28;20050;-71
2024/01/07 21:18:36;;;;;;;18.58;10.02;;;;;;;-0.49;100.00;100118.47;10296574;28;20546;-71
2024/01/07 21:23:38;;;;;;;16.13;9.07;;;;;;;-0.54;100.00;100107.53;10295303;28;20050;-71
2024/01/07 21:28:39;;;;;;;27.02;11.57;;;;;;;-0.40;100.00;100117.03;10295745;28;20174;-71
2024/01/07 21:33:40;;;;;;;21.45;10.32;;;;;;;-0.49;100.00;100117.63;10294345;28;20254;-71
2024/01/07 21:38:41;;;;;;;20.38;10.07;;;;;;;-0.50;100.00;100116.81;10295119;28;20038;-74
2024/01/07 21:43:41;;;;;;;16.85;9.65;;;;;;;-0.49;100.00;100134.13;10294940;28;20101;-71
2024/01/07 21:48:43;;;;;;;16.50;8.60;;;;;;;-0.72;100.00;100061.78;10293849;28;20049;-71
2024/01/07 21:53:44;;;;;;;16.50;8.85;;;;;;;-0.34;100.00;100121.00;10293700;28;20042;-71
2024/01/07 21:58:45;;;;;;;14.82;8.63;;;;;;;-0.36;100.00;100122.84;10293397;28;20546;-71
2024/01/07 22:03:46;;;;;;;25.88;9.77;;;;;;;-0.28;100.00;100125.78;10294925;28;20050;-71
2024/01/07 22:08:46;;;;;;;16.77;8.63;;;;;;;-0.17;100.00;100112.03;10292984;28;20495;-71
2024/01/07 22:13:47;;;;;;;13.68;9.07;;;;;;;0.06;100.00;100113.03;10292912;28;20046;-71
2024/01/07 22:18:48;;;;;;;16.20;9.43;;;;;;;0.04;100.00;100049.66;10293464;28;20042;-71
2024/01/07 22:23:49;;;;;;;21.55;15.18;;;;;;;0.39;100.00;100095.00;10292535;28;20034;-71
2024/01/07 22:28:50;;;;;;;15.68;9.95;;;;;;;0.58;100.00;100104.16;10292404;28;20485;-71
2024/01/07 22:33:51;;;;;;;15.45;8.60;;;;;;;0.67;100.00;100101.69;10292809;28;20080;-71
2024/01/07 22:38:51;;;;;;;12.82;7.03;;;;;;;0.52;100.00;100081.88;10292549;28;20042;-71
2024/01/07 22:43:52;;;;;;;9.50;6.63;;;;;;;0.76;100.00;100112.44;10293183;28;20069;-71
2024/01/07 22:48:53;;;;;;;8.75;5.55;;;;;;;0.71;100.00;100120.59;10292273;28;20046;-71
2024/01/07 22:53:54;;;;;;;14.48;5.22;;;;;;;0.74;100.00;100120.38;10291637;28;20050;-71